sensor_id;sensor_type;location;lat;lon;timestamp;pressure;altitude;pressure_sealevel;temperature;humidity
10470;BME280;5282;47.052;15.458;2023-02-11T00:01:54;99481.50;;;-3.97;100.00
10470;BME280;5282;47.052;15.458;2023-02-11T00:04:21;99476.16;;;-3.94;100.00
10470;BME280;5282;47.052;15.458;2023-02-11T00:06:48;99476.78;;;-4.28;100.00
10470;BME280;5282;47.052;15.458;2023-02-11T00:09:17;99479.56;;;-4.38;100.00
10470;BME280;5282;47.052;15.458;2023-02-11T00:11:45;99479.13;;;-4.65;100.00
10470;BME280;5282;47.052;15.458;2023-02-11T00:14:12;99478.38;;;-4.73;100.00
10470;BME280;5282;47.052;15.458;2023-02-11T00:16:39;99473.59;;;-4.46;100.00
10470;BME280;5282;47.052;15.458;2023-02-11T00:19:08;99472.81;;;-4.54;100.00
10470;BME280;5282;47.052;15.458;2023-02-11T00:21:41;99475.53;;;-4.57;100.00
10470;BME280;5282;47.052;15.458;2023-02-11T00:24:08;99466.63;;;-4.50;100.00
10470;BME280;5282;47.052;15.458;2023-02-11T00:26:35;99467.81;;;-4.68;100.00
10470;BME280;5282;47.052;15.458;2023-02-11T00:29:04;99468.56;;;-4.61;100.00
10470;BME280;5282;47.052;15.458;2023-02-11T00:31:31;99471.44;;;-4.75;100.00
10470;BME280;5282;47.052;15.458;2023-02-11T00:33:58;99464.41;;;-4.75;100.00
10470;BME280;5282;47.052;15.458;2023-02-11T00:36:27;99460.88;;;-4.74;100.00
10470;BME280;5282;47.052;15.458;2023-02-11T00:38:56;99461.69;;;-4.70;100.00
10470;BME280;5282;47.052;15.458;2023-02-11T00:41:24;99460.09;;;-4.81;100.00
10470;BME280;5282;47.052;15.458;2023-02-11T00:43:51;99460.19;;;-4.85;100.00
10470;BME280;5282;47.052;15.458;2023-02-11T00:46:18;99458.25;;;-4.74;100.00
10470;BME280;5282;47.052;15.458;2023-02-11T00:48:46;99458.28;;;-4.75;100.00
10470;BME280;5282;47.052;15.458;2023-02-11T00:51:14;99438.66;;;-4.54;100.00
10470;BME280;5282;47.052;15.458;2023-02-11T00:53:42;99447.16;;;-4.40;100.00
10470;BME280;5282;47.052;15.458;2023-02-11T00:56:09;99448.44;;;-4.61;100.00
10470;BME280;5282;47.052;15.458;2023-02-11T00:58:37;99446.00;;;-4.75;100.00
10470;BME280;5282;47.052;15.458;2023-02-11T01:01:04;99447.00;;;-4.82;100.00
10470;BME280;5282;47.052;15.458;2023-02-11T01:03:31;99445.34;;;-4.88;100.00
10470;BME280;5282;47.052;15.458;2023-02-11T01:05:58;99430.22;;;-4.73;100.00
10470;BME280;5282;47.052;15.458;2023-02-11T01:08:25;99436.91;;;-4.54;100.00
10470;BME280;5282;47.052;15.458;2023-02-11T01:10:55;99430.63;;;-4.45;100.00
10470;BME280;5282;47.052;15.458;2023-02-11T01:13:25;99423.03;;;-4.63;100.00
10470;BME280;5282;47.052;15.458;2023-02-11T01:15:53;99423.00;;;-4.60;100.00
10470;BME280;5282;47.052;15.458;2023-02-11T01:18:20;99416.75;;;-4.55;100.00
10470;BME280;5282;47.052;15.458;2023-02-11T01:20:47;99410.47;;;-4.47;100.00
10470;BME280;5282;47.052;15.458;2023-02-11T01:23:14;99405.13;;;-4.43;100.00
10470;BME280;5282;47.052;15.458;2023-02-11T01:25:41;99401.63;;;-4.42;100.00
10470;BME280;5282;47.052;15.458;2023-02-11T01:28:15;99394.78;;;-4.52;100.00
10470;BME280;5282;47.052;15.458;2023-02-11T01:30:43;99391.31;;;-4.53;100.00
10470;BME280;5282;47.052;15.458;2023-02-11T01:33:09;99389.91;;;-4.74;100.00
10470;BME280;5282;47.052;15.458;2023-02-11T01:35:37;99387.16;;;-4.66;100.00
10470;BME280;5282;47.052;15.458;2023-02-11T01:38:05;99389.09;;;-4.77;100.00
10470;BME280;5282;47.052;15.458;2023-02-11T01:40:32;99379.69;;;-4.91;100.00
10470;BME280;5282;47.052;15.458;2023-02-11T01:42:59;99389.63;;;-5.10;100.00
10470;BME280;5282;47.052;15.458;2023-02-11T01:48:35;99380.09;;;-5.17;100.00
10470;BME280;5282;47.052;15.458;2023-02-11T01:51:07;99368.25;;;-4.87;100.00
10470;BME280;5282;47.052;15.458;2023-02-11T01:53:37;99367.50;;;-4.95;100.00
10470;BME280;5282;47.052;15.458;2023-02-11T01:56:24;99362.66;;;-5.21;100.00
10470;BME280;5282;47.052;15.458;2023-02-11T01:59:13;99364.63;;;-5.34;100.00
10470;BME280;5282;47.052;15.458;2023-02-11T02:01:45;99373.31;;;-5.31;100.00
10470;BME280;5282;47.052;15.458;2023-02-11T02:04:17;99374.34;;;-5.41;100.00
10470;BME280;5282;47.052;15.458;2023-02-11T02:06:48;99371.75;;;-5.44;100.00
10470;BME280;5282;47.052;15.458;2023-02-11T02:09:20;99370.78;;;-5.37;100.00
10470;BME280;5282;47.052;15.458;2023-02-11T02:11:48;99367.28;;;-5.37;100.00
10470;BME280;5282;47.052;15.458;2023-02-11T02:14:15;99363.72;;;-5.35;100.00
10470;BME280;5282;47.052;15.458;2023-02-11T02:16:45;99363.06;;;-5.48;100.00
10470;BME280;5282;47.052;15.458;2023-02-11T02:20:01;99359.28;;;-5.30;100.00
10470;BME280;5282;47.052;15.458;2023-02-11T02:25:41;99352.34;;;-5.34;100.00
10470;BME280;5282;47.052;15.458;2023-02-11T02:28:35;99351.66;;;-5.47;100.00
10470;BME280;5282;47.052;15.458;2023-02-11T02:31:26;99344.97;;;-5.10;100.00
10470;BME280;5282;47.052;15.458;2023-02-11T02:34:01;99341.25;;;-4.97;100.00
10470;BME280;5282;47.052;15.458;2023-02-11T02:36:36;99340.28;;;-4.91;100.00
10470;BME280;5282;47.052;15.458;2023-02-11T02:39:09;99329.81;;;-4.94;100.00
10470;BME280;5282;47.052;15.458;2023-02-11T02:41:38;99332.59;;;-5.03;100.00
10470;BME280;5282;47.052;15.458;2023-02-11T02:44:07;99332.78;;;-5.14;100.00
10470;BME280;5282;47.052;15.458;2023-02-11T02:46:35;99333.91;;;-5.31;100.00
10470;BME280;5282;47.052;15.458;2023-02-11T02:49:05;99333.06;;;-5.33;100.00
10470;BME280;5282;47.052;15.458;2023-02-11T02:51:56;99335.38;;;-5.13;100.00
10470;BME280;5282;47.052;15.458;2023-02-11T02:57:29;99325.75;;;-5.12;100.00
10470;BME280;5282;47.052;15.458;2023-02-11T03:00:14;99317.88;;;-5.12;100.00
10470;BME280;5282;47.052;15.458;2023-02-11T03:02:54;99322.31;;;-5.17;100.00
10470;BME280;5282;47.052;15.458;2023-02-11T03:05:29;99320.81;;;-5.32;100.00
10470;BME280;5282;47.052;15.458;2023-02-11T03:08:05;99325.56;;;-5.56;100.00
10470;BME280;5282;47.052;15.458;2023-02-11T03:10:35;99332.63;;;-5.60;100.00
10470;BME280;5282;47.052;15.458;2023-02-11T03:13:04;99328.06;;;-5.48;100.00
10470;BME280;5282;47.052;15.458;2023-02-11T03:15:37;99323.06;;;-5.65;100.00
10470;BME280;5282;47.052;15.458;2023-02-11T03:18:07;99320.66;;;-5.81;100.00
10470;BME280;5282;47.052;15.458;2023-02-11T03:20:37;99335.75;;;-5.97;100.00
10470;BME280;5282;47.052;15.458;2023-02-11T03:23:10;99324.78;;;-5.63;100.00
10470;BME280;5282;47.052;15.458;2023-02-11T03:25:43;99323.19;;;-5.75;100.00
10470;BME280;5282;47.052;15.458;2023-02-11T03:28:16;99318.88;;;-5.80;100.00
10470;BME280;5282;47.052;15.458;2023-02-11T03:30:48;99314.56;;;-5.81;100.00
10470;BME280;5282;47.052;15.458;2023-02-11T03:33:22;99313.78;;;-5.90;100.00
10470;BME280;5282;47.052;15.458;2023-02-11T03:35:53;99313.00;;;-5.98;100.00
10470;BME280;5282;47.052;15.458;2023-02-11T03:38:26;99314.50;;;-5.78;100.00
10470;BME280;5282;47.052;15.458;2023-02-11T03:40:55;99304.06;;;-5.81;100.00
10470;BME280;5282;47.052;15.458;2023-02-11T03:43:29;99303.34;;;-5.94;100.00
10470;BME280;5282;47.052;15.458;2023-02-11T03:45:57;99301.81;;;-6.06;100.00
10470;BME280;5282;47.052;15.458;2023-02-11T03:48:28;99301.00;;;-6.14;100.00
10470;BME280;5282;47.052;15.458;2023-02-11T03:51:01;99298.97;;;-5.94;100.00
10470;BME280;5282;47.052;15.458;2023-02-11T03:53:31;99295.09;;;-5.68;100.00
10470;BME280;5282;47.052;15.458;2023-02-11T03:56:00;99288.88;;;-5.62;100.00
10470;BME280;5282;47.052;15.458;2023-02-11T03:58:29;99292.22;;;-5.49;100.00
10470;BME280;5282;47.052;15.458;2023-02-11T04:00:56;99294.78;;;-5.48;100.00
10470;BME280;5282;47.052;15.458;2023-02-11T04:03:23;99287.91;;;-5.57;100.00
10470;BME280;5282;47.052;15.458;2023-02-11T04:05:50;99282.66;;;-5.57;100.00
10470;BME280;5282;47.052;15.458;2023-02-11T04:08:18;99288.34;;;-5.84;100.00
10470;BME280;5282;47.052;15.458;2023-02-11T04:10:45;99293.13;;;-6.10;100.00
10470;BME280;5282;47.052;15.458;2023-02-11T04:13:12;99288.81;;;-6.15;100.00
10470;BME280;5282;47.052;15.458;2023-02-11T04:15:39;99294.91;;;-6.15;100.00
10470;BME280;5282;47.052;15.458;2023-02-11T04:18:07;99288.84;;;-6.20;100.00
10470;BME280;5282;47.052;15.458;2023-02-11T04:20:36;99289.72;;;-6.21;100.00
10470;BME280;5282;47.052;15.458;2023-02-11T04:23:03;99277.16;;;-5.96;100.00
10470;BME280;5282;47.052;15.458;2023-02-11T04:25:32;99278.00;;;-5.94;100.00
10470;BME280;5282;47.052;15.458;2023-02-11T04:27:59;99280.94;;;-6.15;100.00
10470;BME280;5282;47.052;15.458;2023-02-11T04:30:26;99282.09;;;-6.40;100.00
10470;BME280;5282;47.052;15.458;2023-02-11T04:32:53;99275.06;;;-6.36;100.00
10470;BME280;5282;47.052;15.458;2023-02-11T04:35:19;99273.44;;;-6.45;100.00
10470;BME280;5282;47.052;15.458;2023-02-11T04:37:46;99273.41;;;-6.43;100.00
10470;BME280;5282;47.052;15.458;2023-02-11T04:40:13;99265.59;;;-6.45;100.00
10470;BME280;5282;47.052;15.458;2023-02-11T04:42:41;99262.00;;;-6.38;100.00
10470;BME280;5282;47.052;15.458;2023-02-11T04:45:09;99261.97;;;-6.36;100.00
10470;BME280;5282;47.052;15.458;2023-02-11T04:47:35;99255.78;;;-6.30;100.00
10470;BME280;5282;47.052;15.458;2023-02-11T04:50:03;99254.03;;;-6.31;100.00
10470;BME280;5282;47.052;15.458;2023-02-11T04:52:30;99250.56;;;-6.32;100.00
10470;BME280;5282;47.052;15.458;2023-02-11T04:54:57;99237.94;;;-6.03;100.00
10470;BME280;5282;47.052;15.458;2023-02-11T04:57:24;99245.66;;;-5.97;100.00
10470;BME280;5282;47.052;15.458;2023-02-11T04:59:55;99243.31;;;-6.13;100.00
10470;BME280;5282;47.052;15.458;2023-02-11T05:02:22;99239.78;;;-6.10;100.00
10470;BME280;5282;47.052;15.458;2023-02-11T05:04:48;99231.56;;;-5.87;100.00
10470;BME280;5282;47.052;15.458;2023-02-11T05:07:15;99230.69;;;-5.89;100.00
10470;BME280;5282;47.052;15.458;2023-02-11T05:09:42;99236.44;;;-6.22;100.00
10470;BME280;5282;47.052;15.458;2023-02-11T05:12:09;99235.78;;;-6.38;100.00
10470;BME280;5282;47.052;15.458;2023-02-11T05:14:36;99235.66;;;-6.28;100.00
10470;BME280;5282;47.052;15.458;2023-02-11T05:17:04;99231.16;;;-6.18;100.00
10470;BME280;5282;47.052;15.458;2023-02-11T05:19:31;99236.38;;;-6.15;100.00
10470;BME280;5282;47.052;15.458;2023-02-11T05:21:58;99232.53;;;-5.96;100.00
10470;BME280;5282;47.052;15.458;2023-02-11T05:24:25;99229.41;;;-6.20;100.00
10470;BME280;5282;47.052;15.458;2023-02-11T05:26:52;99233.66;;;-6.09;100.00
10470;BME280;5282;47.052;15.458;2023-02-11T05:29:19;99233.72;;;-6.14;100.00
10470;BME280;5282;47.052;15.458;2023-02-11T05:31:46;99236.53;;;-6.29;100.00
10470;BME280;5282;47.052;15.458;2023-02-11T05:34:14;99234.72;;;-6.26;100.00
10470;BME280;5282;47.052;15.458;2023-02-11T05:36:41;99230.13;;;-6.08;100.00
10470;BME280;5282;47.052;15.458;2023-02-11T05:39:08;99231.56;;;-5.89;100.00
10470;BME280;5282;47.052;15.458;2023-02-11T05:41:35;99227.25;;;-5.93;100.00
10470;BME280;5282;47.052;15.458;2023-02-11T05:44:02;99230.69;;;-5.91;100.00
10470;BME280;5282;47.052;15.458;2023-02-11T05:46:29;99232.41;;;-5.86;100.00
10470;BME280;5282;47.052;15.458;2023-02-11T05:48:56;99237.94;;;-6.03;100.00
10470;BME280;5282;47.052;15.458;2023-02-11T05:51:24;99236.56;;;-6.31;100.00
10470;BME280;5282;47.052;15.458;2023-02-11T05:53:51;99231.06;;;-6.12;100.00
10470;BME280;5282;47.052;15.458;2023-02-11T05:56:18;99228.28;;;-6.01;100.00
10470;BME280;5282;47.052;15.458;2023-02-11T05:58:45;99227.97;;;-5.81;100.00
10470;BME280;5282;47.052;15.458;2023-02-11T06:01:12;99226.38;;;-5.93;100.00
10470;BME280;5282;47.052;15.458;2023-02-11T06:03:39;99224.63;;;-5.93;100.00
10470;BME280;5282;47.052;15.458;2023-02-11T06:06:09;99227.81;;;-6.30;100.00
10470;BME280;5282;47.052;15.458;2023-02-11T06:08:37;99241.09;;;-6.44;100.00
10470;BME280;5282;47.052;15.458;2023-02-11T06:11:04;99228.53;;;-6.20;100.00
10470;BME280;5282;47.052;15.458;2023-02-11T06:13:31;99229.06;;;-5.98;100.00
10470;BME280;5282;47.052;15.458;2023-02-11T06:15:59;99216.78;;;-5.93;100.00
10470;BME280;5282;47.052;15.458;2023-02-11T06:18:27;99217.63;;;-5.92;100.00
10470;BME280;5282;47.052;15.458;2023-02-11T06:20:54;99216.81;;;-5.96;100.00
10470;BME280;5282;47.052;15.458;2023-02-11T06:23:21;99217.81;;;-6.03;100.00
10470;BME280;5282;47.052;15.458;2023-02-11T06:25:49;99220.53;;;-6.09;100.00
10470;BME280;5282;47.052;15.458;2023-02-11T06:28:16;99224.13;;;-6.16;100.00
10470;BME280;5282;47.052;15.458;2023-02-11T06:30:44;99208.22;;;-6.04;100.00
10470;BME280;5282;47.052;15.458;2023-02-11T06:33:11;99215.38;;;-6.15;100.00
10470;BME280;5282;47.052;15.458;2023-02-11T06:35:38;99210.69;;;-5.96;100.00
10470;BME280;5282;47.052;15.458;2023-02-11T06:38:05;99206.16;;;-5.86;100.00
10470;BME280;5282;47.052;15.458;2023-02-11T06:40:31;99207.78;;;-5.79;100.00
10470;BME280;5282;47.052;15.458;2023-02-11T06:43:01;99210.63;;;-5.93;100.00
10470;BME280;5282;47.052;15.458;2023-02-11T06:45:28;99212.47;;;-5.98;100.00
10470;BME280;5282;47.052;15.458;2023-02-11T06:47:55;99220.13;;;-5.84;100.00
10470;BME280;5282;47.052;15.458;2023-02-11T06:50:22;99214.13;;;-5.91;100.00
10470;BME280;5282;47.052;15.458;2023-02-11T06:52:49;99219.28;;;-5.86;100.00
10470;BME280;5282;47.052;15.458;2023-02-11T06:55:16;99221.50;;;-5.60;100.00
10470;BME280;5282;47.052;15.458;2023-02-11T06:57:43;99218.25;;;-5.23;100.00
10470;BME280;5282;47.052;15.458;2023-02-11T07:00:13;99213.84;;;-5.22;100.00
10470;BME280;5282;47.052;15.458;2023-02-11T07:02:40;99209.25;;;-5.09;100.00
10470;BME280;5282;47.052;15.458;2023-02-11T07:05:07;99212.63;;;-5.03;100.00
10470;BME280;5282;47.052;15.458;2023-02-11T07:07:34;99204.41;;;-4.86;100.00
10470;BME280;5282;47.052;15.458;2023-02-11T07:10:02;99210.44;;;-4.79;100.00
10470;BME280;5282;47.052;15.458;2023-02-11T07:12:30;99214.69;;;-4.73;100.00
10470;BME280;5282;47.052;15.458;2023-02-11T07:14:58;99213.41;;;-4.54;100.00
10470;BME280;5282;47.052;15.458;2023-02-11T07:17:26;99217.53;;;-4.42;100.00
10470;BME280;5282;47.052;15.458;2023-02-11T07:19:53;99217.41;;;-4.36;100.00
10470;BME280;5282;47.052;15.458;2023-02-11T07:22:20;99216.44;;;-4.30;100.00
10470;BME280;5282;47.052;15.458;2023-02-11T07:24:48;99209.47;;;-4.32;100.00
10470;BME280;5282;47.052;15.458;2023-02-11T07:27:14;99215.81;;;-4.43;100.00
10470;BME280;5282;47.052;15.458;2023-02-11T07:29:41;99218.50;;;-4.46;100.00
10470;BME280;5282;47.052;15.458;2023-02-11T07:32:10;99213.84;;;-4.33;100.00
10470;BME280;5282;47.052;15.458;2023-02-11T07:34:38;99211.91;;;-4.25;100.00
10470;BME280;5282;47.052;15.458;2023-02-11T07:37:05;99204.03;;;-4.25;100.00
10470;BME280;5282;47.052;15.458;2023-02-11T07:39:32;99215.16;;;-4.53;100.00
10470;BME280;5282;47.052;15.458;2023-02-11T07:41:59;99220.38;;;-4.51;100.00
10470;BME280;5282;47.052;15.458;2023-02-11T07:44:26;99209.53;;;-4.36;100.00
10470;BME280;5282;47.052;15.458;2023-02-11T07:46:53;99224.22;;;-4.25;100.00
10470;BME280;5282;47.052;15.458;2023-02-11T07:49:21;99218.47;;;-4.04;100.00
10470;BME280;5282;47.052;15.458;2023-02-11T07:51:50;99206.81;;;-3.93;100.00
10470;BME280;5282;47.052;15.458;2023-02-11T07:54:17;99201.28;;;-3.81;100.00
10470;BME280;5282;47.052;15.458;2023-02-11T07:56:44;99200.34;;;-3.78;100.00
10470;BME280;5282;47.052;15.458;2023-02-11T07:59:13;99206.25;;;-3.68;100.00
10470;BME280;5282;47.052;15.458;2023-02-11T08:01:42;99207.94;;;-3.66;100.00
10470;BME280;5282;47.052;15.458;2023-02-11T08:04:10;99204.09;;;-3.51;100.00
10470;BME280;5282;47.052;15.458;2023-02-11T08:06:40;99196.00;;;-3.45;100.00
10470;BME280;5282;47.052;15.458;2023-02-11T08:09:13;99196.00;;;-3.45;100.00
10470;BME280;5282;47.052;15.458;2023-02-11T08:11:40;99196.78;;;-3.39;100.00
10470;BME280;5282;47.052;15.458;2023-02-11T08:14:07;99204.50;;;-3.33;100.00
10470;BME280;5282;47.052;15.458;2023-02-11T08:16:35;99199.31;;;-3.36;100.00
10470;BME280;5282;47.052;15.458;2023-02-11T08:19:07;99201.03;;;-3.35;100.00
10470;BME280;5282;47.052;15.458;2023-02-11T08:21:36;99203.28;;;-3.20;100.00
10470;BME280;5282;47.052;15.458;2023-02-11T08:24:04;99205.59;;;-3.07;100.00
10470;BME280;5282;47.052;15.458;2023-02-11T08:26:33;99208.03;;;-3.00;100.00
10470;BME280;5282;47.052;15.458;2023-02-11T08:29:02;99203.03;;;-3.11;100.00
10470;BME280;5282;47.052;15.458;2023-02-11T08:31:33;99198.34;;;-2.99;100.00
10470;BME280;5282;47.052;15.458;2023-02-11T08:34:01;99196.19;;;-2.85;100.00
10470;BME280;5282;47.052;15.458;2023-02-11T08:36:30;99199.81;;;-2.89;100.00
10470;BME280;5282;47.052;15.458;2023-02-11T08:38:58;99204.38;;;-2.94;100.00
10470;BME280;5282;47.052;15.458;2023-02-11T08:41:27;99204.13;;;-2.55;100.00
10470;BME280;5282;47.052;15.458;2023-02-11T08:43:55;99200.72;;;-2.28;100.00
10470;BME280;5282;47.052;15.458;2023-02-11T08:46:22;99190.53;;;-2.11;100.00
10470;BME280;5282;47.052;15.458;2023-02-11T08:48:49;99187.47;;;-1.97;100.00
10470;BME280;5282;47.052;15.458;2023-02-11T08:51:18;99196.63;;;-1.80;100.00
10470;BME280;5282;47.052;15.458;2023-02-11T08:53:46;99191.63;;;-1.61;100.00
10470;BME280;5282;47.052;15.458;2023-02-11T08:56:14;99191.06;;;-1.44;100.00
10470;BME280;5282;47.052;15.458;2023-02-11T08:58:42;99186.84;;;-1.50;100.00
10470;BME280;5282;47.052;15.458;2023-02-11T09:01:11;99186.28;;;-1.33;100.00
10470;BME280;5282;47.052;15.458;2023-02-11T09:03:38;99193.56;;;-1.14;100.00
10470;BME280;5282;47.052;15.458;2023-02-11T09:06:06;99186.44;;;-1.12;100.00
10470;BME280;5282;47.052;15.458;2023-02-11T09:08:37;99179.19;;;-1.07;100.00
10470;BME280;5282;47.052;15.458;2023-02-11T09:11:04;99180.19;;;-1.10;100.00
10470;BME280;5282;47.052;15.458;2023-02-11T09:13:32;99170.41;;;-0.82;100.00
10470;BME280;5282;47.052;15.458;2023-02-11T09:16:01;99174.22;;;-0.66;100.00
10470;BME280;5282;47.052;15.458;2023-02-11T09:18:30;99178.28;;;-0.81;98.88
10470;BME280;5282;47.052;15.458;2023-02-11T09:21:01;99177.31;;;-0.78;99.99
10470;BME280;5282;47.052;15.458;2023-02-11T09:23:28;99175.78;;;-0.85;99.98
10470;BME280;5282;47.052;15.458;2023-02-11T09:25:55;99178.91;;;-0.74;100.00
10470;BME280;5282;47.052;15.458;2023-02-11T09:28:22;99171.28;;;-0.82;100.00
10470;BME280;5282;47.052;15.458;2023-02-11T09:30:49;99170.97;;;-0.50;100.00
10470;BME280;5282;47.052;15.458;2023-02-11T09:33:16;99169.28;;;-0.05;99.84
10470;BME280;5282;47.052;15.458;2023-02-11T09:35:44;99166.13;;;0.29;100.00
10470;BME280;5282;47.052;15.458;2023-02-11T09:38:11;99159.56;;;0.60;93.73
10470;BME280;5282;47.052;15.458;2023-02-11T09:40:41;99157.72;;;0.63;93.67
10470;BME280;5282;47.052;15.458;2023-02-11T09:43:10;99149.34;;;0.92;91.61
10470;BME280;5282;47.052;15.458;2023-02-11T09:45:40;99152.13;;;1.10;87.15
10470;BME280;5282;47.052;15.458;2023-02-11T09:48:12;99147.16;;;0.61;82.03
10470;BME280;5282;47.052;15.458;2023-02-11T09:50:42;99146.31;;;0.81;81.90
10470;BME280;5282;47.052;15.458;2023-02-11T09:53:15;99141.47;;;0.91;82.17
10470;BME280;5282;47.052;15.458;2023-02-11T09:55:45;99135.59;;;0.84;82.80
10470;BME280;5282;47.052;15.458;2023-02-11T09:58:15;99134.78;;;0.82;82.06
10470;BME280;5282;47.052;15.458;2023-02-11T10:00:47;99138.38;;;0.38;88.77
10470;BME280;5282;47.052;15.458;2023-02-11T10:03:31;99125.22;;;0.78;86.67
10470;BME280;5282;47.052;15.458;2023-02-11T10:06:16;99116.84;;;1.08;83.21
10470;BME280;5282;47.052;15.458;2023-02-11T10:08:56;99123.88;;;1.49;79.44
10470;BME280;5282;47.052;15.458;2023-02-11T10:11:30;99119.69;;;1.24;72.21
10470;BME280;5282;47.052;15.458;2023-02-11T10:14:10;99125.28;;;1.56;70.28
10470;BME280;5282;47.052;15.458;2023-02-11T10:16:51;99116.16;;;1.81;65.88
10470;BME280;5282;47.052;15.458;2023-02-11T10:19:33;99112.59;;;1.99;66.17
10470;BME280;5282;47.052;15.458;2023-02-11T10:22:08;99109.13;;;2.16;63.37
10470;BME280;5282;47.052;15.458;2023-02-11T10:24:40;99108.66;;;2.08;64.54
10470;BME280;5282;47.052;15.458;2023-02-11T10:27:15;99093.59;;;2.44;63.08
10470;BME280;5282;47.052;15.458;2023-02-11T10:29:46;99093.44;;;2.65;62.61
10470;BME280;5282;47.052;15.458;2023-02-11T10:32:25;99081.44;;;2.73;62.36
10470;BME280;5282;47.052;15.458;2023-02-11T10:34:59;99084.88;;;2.93;62.20
10470;BME280;5282;47.052;15.458;2023-02-11T10:37:28;99086.22;;;3.18;59.99
10470;BME280;5282;47.052;15.458;2023-02-11T10:39:57;99076.72;;;3.30;56.13
10470;BME280;5282;47.052;15.458;2023-02-11T10:42:24;99071.72;;;3.23;58.06
10470;BME280;5282;47.052;15.458;2023-02-11T10:44:56;99056.28;;;3.62;56.69
10470;BME280;5282;47.052;15.458;2023-02-11T10:47:27;99052.00;;;4.06;54.43
10470;BME280;5282;47.052;15.458;2023-02-11T10:49:57;99048.81;;;4.15;53.19
10470;BME280;5282;47.052;15.458;2023-02-11T10:52:29;99054.84;;;4.19;55.39
10470;BME280;5282;47.052;15.458;2023-02-11T10:55:03;99047.44;;;4.84;53.67
10470;BME280;5282;47.052;15.458;2023-02-11T10:57:34;99035.72;;;5.30;51.73
10470;BME280;5282;47.052;15.458;2023-02-11T11:00:18;99038.38;;;5.15;52.08
10470;BME280;5282;47.052;15.458;2023-02-11T11:02:52;99040.94;;;5.73;48.03
10470;BME280;5282;47.052;15.458;2023-02-11T11:05:27;99032.91;;;6.15;48.65
10470;BME280;5282;47.052;15.458;2023-02-11T11:07:58;99026.31;;;6.33;47.51
10470;BME280;5282;47.052;15.458;2023-02-11T11:10:35;99027.34;;;6.71;46.94
10470;BME280;5282;47.052;15.458;2023-02-11T11:13:23;99030.22;;;6.55;46.34
10470;BME280;5282;47.052;15.458;2023-02-11T11:16:06;99019.41;;;6.95;44.97
10470;BME280;5282;47.052;15.458;2023-02-11T11:18:34;99017.25;;;7.14;42.97
10470;BME280;5282;47.052;15.458;2023-02-11T11:21:03;99013.06;;;7.09;43.98
10470;BME280;5282;47.052;15.458;2023-02-11T11:23:33;99001.06;;;7.15;44.11
10470;BME280;5282;47.052;15.458;2023-02-11T11:26:05;98999.50;;;6.74;43.85
10470;BME280;5282;47.052;15.458;2023-02-11T11:28:35;98992.94;;;6.39;44.57
10470;BME280;5282;47.052;15.458;2023-02-11T11:31:11;98988.22;;;6.94;45.00
10470;BME280;5282;47.052;15.458;2023-02-11T11:33:41;98987.81;;;7.38;43.90
10470;BME280;5282;47.052;15.458;2023-02-11T11:36:11;98978.09;;;7.24;42.94
10470;BME280;5282;47.052;15.458;2023-02-11T11:38:43;98983.13;;;5.99;45.76
10470;BME280;5282;47.052;15.458;2023-02-11T11:41:23;98968.84;;;5.86;46.04
10470;BME280;5282;47.052;15.458;2023-02-11T11:43:59;98967.72;;;5.76;46.29
10470;BME280;5282;47.052;15.458;2023-02-11T11:46:29;98960.50;;;5.36;46.43
10470;BME280;5282;47.052;15.458;2023-02-11T11:49:06;98960.09;;;5.56;47.68
10470;BME280;5282;47.052;15.458;2023-02-11T11:51:41;98967.50;;;5.66;47.00
10470;BME280;5282;47.052;15.458;2023-02-11T11:54:11;98966.69;;;5.78;47.14
10470;BME280;5282;47.052;15.458;2023-02-11T11:56:46;98956.34;;;6.27;46.74
10470;BME280;5282;47.052;15.458;2023-02-11T11:59:16;98959.34;;;6.48;44.58
10470;BME280;5282;47.052;15.458;2023-02-11T12:01:52;98963.53;;;6.78;44.62
10470;BME280;5282;47.052;15.458;2023-02-11T12:07:41;98948.50;;;7.25;42.91
10470;BME280;5282;47.052;15.458;2023-02-11T12:10:30;98937.13;;;7.83;42.83
10470;BME280;5282;47.052;15.458;2023-02-11T12:13:11;98935.59;;;7.92;41.32
10470;BME280;5282;47.052;15.458;2023-02-11T12:15:51;98926.47;;;8.06;42.08
10470;BME280;5282;47.052;15.458;2023-02-11T12:18:36;98918.16;;;8.33;40.50
10470;BME280;5282;47.052;15.458;2023-02-11T12:21:25;98909.25;;;8.44;40.33
10470;BME280;5282;47.052;15.458;2023-02-11T12:24:07;98904.88;;;8.55;39.47
10470;BME280;5282;47.052;15.458;2023-02-11T12:26:44;98911.59;;;8.72;39.23
10470;BME280;5282;47.052;15.458;2023-02-11T12:29:22;98911.25;;;8.07;40.79
10470;BME280;5282;47.052;15.458;2023-02-11T12:32:07;98898.69;;;8.54;39.13
10470;BME280;5282;47.052;15.458;2023-02-11T12:34:51;98893.53;;;8.51;39.98
10470;BME280;5282;47.052;15.458;2023-02-11T12:37:35;98887.19;;;8.63;40.52
10470;BME280;5282;47.052;15.458;2023-02-11T12:40:14;98873.00;;;9.07;38.71
10470;BME280;5282;47.052;15.458;2023-02-11T12:42:50;98869.31;;;9.08;38.91
10470;BME280;5282;47.052;15.458;2023-02-11T12:46:03;98868.34;;;8.07;38.27
10470;BME280;5282;47.052;15.458;2023-02-11T12:48:51;98863.50;;;7.40;38.26
10470;BME280;5282;47.052;15.458;2023-02-11T12:51:38;98858.31;;;7.97;38.65
10470;BME280;5282;47.052;15.458;2023-02-11T12:54:18;98849.59;;;8.29;37.43
10470;BME280;5282;47.052;15.458;2023-02-11T12:56:51;98845.38;;;8.02;37.06
10470;BME280;5282;47.052;15.458;2023-02-11T12:59:30;98846.06;;;7.70;37.31
10470;BME280;5282;47.052;15.458;2023-02-11T13:02:04;98838.56;;;7.87;38.18
10470;BME280;5282;47.052;15.458;2023-02-11T13:04:35;98835.78;;;7.53;37.14
10470;BME280;5282;47.052;15.458;2023-02-11T13:07:11;98839.75;;;7.83;37.61
10470;BME280;5282;47.052;15.458;2023-02-11T13:09:44;98831.06;;;7.68;36.88
10470;BME280;5282;47.052;15.458;2023-02-11T13:12:15;98820.63;;;7.87;37.13
10470;BME280;5282;47.052;15.458;2023-02-11T13:15:03;98821.22;;;7.80;36.87
10470;BME280;5282;47.052;15.458;2023-02-11T13:17:36;98816.53;;;7.59;37.93
10470;BME280;5282;47.052;15.458;2023-02-11T13:20:17;98818.31;;;7.94;37.56
10470;BME280;5282;47.052;15.458;2023-02-11T13:22:53;98818.31;;;7.83;37.04
10470;BME280;5282;47.052;15.458;2023-02-11T13:25:31;98813.78;;;7.83;36.24
10470;BME280;5282;47.052;15.458;2023-02-11T13:28:16;98803.63;;;7.53;36.42